Time;durP1;ratioP1;P1;durP2;ratioP2;P2;SDS_P1;SDS_P2;PMS_P1;PMS_P2;Temp;Humidity;BMP_temperature;BMP_pressure;BME280_temperature;BME280_humidity;BME280_pressure;Samples;Min_cycle;Max_cycle;Signal;HPM_P1;HPM_P2
2022/12/17 13:06:37;;;;;;;4.77;2.23;;;9.60;99.90;;;;;;5006133;28;20212;-56
2022/12/17 13:09:15;;;;;;;7.67;2.50;;;9.50;99.90;;;;;;5007445;28;20175;-57
2022/12/17 13:11:43;;;;;;;8.17;2.47;;;9.20;99.90;;;;;;5009031;28;20217;-57
2022/12/17 13:14:27;;;;;;;10.83;2.40;;;9.10;99.90;;;;;;5009703;28;20246;-58
2022/12/17 13:17:13;;;;;;;12.10;2.53;;;9.00;99.90;;;;;;5004496;28;20280;-57
2022/12/17 13:19:46;;;;;;;10.37;2.83;;;9.90;99.90;;;;;;5008767;28;20185;-57
2022/12/17 13:22:14;;;;;;;7.67;2.30;;;8.50;99.90;;;;;;4996539;28;20191;-58
2022/12/17 13:24:41;;;;;;;5.90;2.30;;;8.00;99.90;;;;;;5003259;28;20182;-59
2022/12/17 13:27:35;;;;;;;10.10;2.70;;;8.00;99.90;;;;;;5009549;28;20226;-58
2022/12/17 13:30:16;;;;;;;12.80;2.50;;;8.20;99.90;;;;;;4997128;28;20190;-59
2022/12/17 13:32:57;;;;;;;9.87;2.03;;;8.10;99.90;;;;;;5005993;28;20678;-58
2022/12/17 13:35:39;;;;;;;8.27;2.20;;;8.30;99.90;;;;;;5009591;28;20174;-57
2022/12/17 13:38:38;;;;;;;7.30;1.57;;;7.90;99.90;;;;;;5010933;28;20190;-58
2022/12/17 13:41:25;;;;;;;9.20;1.77;;;8.00;99.90;;;;;;5012296;28;20178;-59
2022/12/17 13:43:56;;;;;;;5.83;1.50;;;7.80;99.90;;;;;;5009257;28;20226;-57
2022/12/17 13:46:27;;;;;;;6.43;1.97;;;7.60;99.90;;;;;;5008408;28;20186;-57
2022/12/17 13:48:56;;;;;;;6.63;1.73;;;7.90;99.90;;;;;;5006048;28;20223;-57
2022/12/17 13:51:23;;;;;;;7.37;1.67;;;7.70;99.90;;;;;;5005479;28;20211;-57
2022/12/17 13:53:54;;;;;;;5.03;1.67;;;7.60;99.90;;;;;;5012560;28;20588;-58
2022/12/17 13:56:28;;;;;;;3.23;1.03;;;7.40;99.90;;;;;;5013376;28;20189;-58
2022/12/17 13:58:55;;;;;;;10.63;1.40;;;7.40;99.90;;;;;;5013862;28;20175;-58
2022/12/17 14:01:21;;;;;;;5.40;1.30;;;7.50;99.90;;;;;;5010107;28;20273;-58
2022/12/17 14:03:56;;;;;;;7.97;1.70;;;7.60;99.90;;;;;;5000699;28;20621;-58
2022/12/17 14:06:25;;;;;;;9.10;1.70;;;7.50;99.90;;;;;;5005631;28;20664;-58
2022/12/17 14:08:52;;;;;;;5.93;1.63;;;7.30;99.90;;;;;;5013582;28;20203;-58
2022/12/17 14:14:09;;;;;;;6.90;2.07;;;7.20;99.90;;;;;;5014562;28;20209;-59
2022/12/17 14:16:35;;;;;;;8.30;1.63;;;7.80;99.90;;;;;;5010557;28;20182;-58
2022/12/17 14:19:01;;;;;;;4.77;1.97;;;7.50;99.90;;;;;;5012414;28;20183;-58
2022/12/17 14:21:28;;;;;;;5.00;2.20;;;7.20;99.90;;;;;;5012142;28;20229;-59
2022/12/17 14:23:55;;;;;;;5.90;2.40;;;7.30;99.90;;;;;;5013261;28;20241;-59
2022/12/17 14:26:21;;;;;;;13.60;2.73;;;7.50;99.90;;;;;;5004896;28;20212;-58
2022/12/17 14:28:53;;;;;;;8.27;2.57;;;7.30;99.90;;;;;;5011220;28;20225;-59
2022/12/17 14:31:18;;;;;;;10.97;3.03;;;7.40;99.90;;;;;;5011659;28;20222;-59
2022/12/17 14:33:45;;;;;;;7.13;4.10;;;7.90;99.90;;;;;;5013246;28;20175;-58
2022/12/17 14:36:14;;;;;;;13.77;3.63;;;7.20;99.90;;;;;;5011743;28;20179;-58
2022/12/17 14:38:49;;;;;;;11.37;3.03;;;6.70;99.90;;;;;;5011221;28;20170;-59
2022/12/17 14:44:00;;;;;;;7.30;2.27;;;7.90;99.90;;;;;;5018975;28;20264;-59
2022/12/17 14:46:28;;;;;;;9.97;2.33;;;8.00;99.90;;;;;;5009183;28;20240;-59
2022/12/17 14:49:01;;;;;;;6.97;2.47;;;7.80;99.90;;;;;;5009405;28;20295;-58
2022/12/17 14:51:39;;;;;;;6.37;2.60;;;8.00;99.90;;;;;;5012475;28;20218;-57
2022/12/17 14:54:24;;;;;;;11.70;2.50;;;7.50;99.90;;;;;;5012898;28;20672;-58
2022/12/17 14:56:53;;;;;;;9.43;2.23;;;7.40;99.90;;;;;;5012472;28;20275;-57
2022/12/17 14:59:32;;;;;;;21.10;8.80;;;7.20;99.90;;;;;;5012854;28;20179;-57
2022/12/17 15:02:03;;;;;;;13.23;5.17;;;7.50;99.90;;;;;;5012164;28;20190;-58
2022/12/17 15:04:31;;;;;;;8.37;3.00;;;7.40;99.90;;;;;;5010917;28;20205;-57
2022/12/17 15:06:57;;;;;;;8.70;2.80;;;7.50;99.90;;;;;;5009502;28;20190;-58
2022/12/17 15:09:23;;;;;;;11.50;2.53;;;;;;;;;;4999399;28;20189;-58
2022/12/17 15:11:49;;;;;;;7.27;2.60;;;7.50;99.90;;;;;;5009854;28;20219;-58
2022/12/17 15:14:15;;;;;;;7.60;2.90;;;;;;;;;;5011094;28;20170;-58
2022/12/17 15:16:41;;;;;;;10.20;3.80;;;7.60;99.90;;;;;;5011343;28;20175;-58
2022/12/17 15:19:07;;;;;;;12.90;3.00;;;;;;;;;;5010568;28;20525;-58
2022/12/17 15:21:33;;;;;;;12.63;3.20;;;7.20;99.90;;;;;;5011742;28;20182;-58
2022/12/17 15:23:58;;;;;;;12.43;3.13;;;6.90;99.90;;;;;;5012235;28;20171;-58
2022/12/17 15:26:24;;;;;;;12.97;3.80;;;6.40;99.90;;;;;;5011500;28;20935;-59
2022/12/17 15:28:50;;;;;;;9.93;3.30;;;6.90;99.90;;;;;;5010305;28;20218;-57
2022/12/17 15:31:16;;;;;;;11.23;3.10;;;6.90;99.90;;;;;;5010371;28;20260;-58
2022/12/17 15:33:41;;;;;;;16.93;5.10;;;7.40;99.90;;;;;;5007796;28;20202;-57
2022/12/17 15:36:10;;;;;;;13.20;4.30;;;7.00;99.90;;;;;;5009754;28;20166;-58
2022/12/17 15:38:35;;;;;;;10.57;3.13;;;7.60;99.90;;;;;;5011162;28;21106;-60
2022/12/17 15:43:09;;;;;;;22.17;5.30;;;6.80;99.90;;;;;;5008504;28;20716;-57
2022/12/17 15:43:50;;;;;;;14.57;5.50;;;;;;;;;;4992351;28;20202;-59
2022/12/17 15:46:16;;;;;;;16.07;6.20;;;6.20;99.90;;;;;;5007181;28;20186;-59
2022/12/17 15:48:42;;;;;;;12.30;4.40;;;6.80;99.90;;;;;;5007604;28;20241;-57
2022/12/17 15:51:08;;;;;;;15.17;3.13;;;6.50;99.90;;;;;;4995874;28;20210;-62
2022/12/17 15:53:34;;;;;;;11.40;3.07;;;;;;;;;;5005701;28;20198;-58
2022/12/17 15:56:01;;;;;;;8.23;3.10;;;6.40;99.90;;;;;;5004797;28;20206;-58
2022/12/17 15:58:28;;;;;;;16.40;4.07;;;6.30;99.90;;;;;;5008785;28;20598;-58
2022/12/17 16:00:53;;;;;;;8.67;3.20;;;6.20;99.90;;;;;;5003770;28;20183;-57
2022/12/17 16:03:19;;;;;;;9.50;2.43;;;5.90;99.90;;;;;;5000067;28;20189;-57
2022/12/17 16:05:45;;;;;;;11.17;2.97;;;6.20;99.90;;;;;;4999192;28;20184;-58
2022/12/17 16:08:11;;;;;;;13.83;2.27;;;;;;;;;;5009540;28;20181;-58
2022/12/17 16:10:37;;;;;;;7.33;2.67;;;6.30;99.90;;;;;;5007737;28;20190;-58
2022/12/17 16:13:04;;;;;;;9.70;2.67;;;6.10;99.90;;;;;;5011354;28;20296;-58
2022/12/17 16:15:30;;;;;;;9.50;2.80;;;5.80;99.90;;;;;;5009078;28;20668;-57
2022/12/17 16:17:56;;;;;;;8.93;2.70;;;;;;;;;;5009971;28;20726;-58
2022/12/17 16:20:22;;;;;;;14.27;3.23;;;5.70;99.90;;;;;;5007154;28;20254;-58
2022/12/17 16:22:48;;;;;;;8.47;3.57;;;5.70;99.90;;;;;;5008202;28;20319;-60
2022/12/17 16:25:14;;;;;;;11.03;4.03;;;5.50;99.90;;;;;;5006778;28;20498;-58
2022/12/17 16:27:42;;;;;;;11.33;4.37;;;5.60;99.90;;;;;;4999945;28;20708;-59
2022/12/17 16:30:10;;;;;;;17.27;5.83;;;5.40;99.90;;;;;;5009629;28;20280;-59
2022/12/17 16:32:36;;;;;;;15.33;5.10;;;;;;;;;;5004831;28;20215;-58
2022/12/17 16:35:03;;;;;;;12.80;4.70;;;4.80;99.90;;;;;;5005472;28;20261;-58
2022/12/17 16:37:29;;;;;;;14.00;3.80;;;;;;;;;;5010023;28;20182;-59
2022/12/17 16:39:55;;;;;;;10.03;3.80;;;;;;;;;;5010856;28;20174;-60
2022/12/17 16:42:21;;;;;;;7.53;3.07;;;5.10;99.90;;;;;;5011050;28;20254;-60
2022/12/17 16:44:46;;;;;;;7.27;2.63;;;5.20;99.90;;;;;;5009237;28;20728;-59
2022/12/17 16:47:12;;;;;;;7.87;2.50;;;4.90;99.90;;;;;;5010975;28;20198;-58
2022/12/17 16:49:38;;;;;;;12.40;2.60;;;;;;;;;;5010775;28;20246;-60
2022/12/17 16:52:04;;;;;;;7.40;2.50;;;4.90;99.90;;;;;;5009882;28;20222;-59
2022/12/17 16:54:31;;;;;;;5.80;1.93;;;5.40;99.90;;;;;;5007274;28;20187;-58
2022/12/17 16:57:00;;;;;;;8.80;2.93;;;5.30;99.90;;;;;;5008807;28;20182;-58
2022/12/17 16:59:26;;;;;;;11.87;2.93;;;6.10;99.90;;;;;;5010815;28;20265;-59
2022/12/17 17:01:52;;;;;;;6.53;2.70;;;4.70;99.90;;;;;;5012152;28;20186;-58
2022/12/17 17:04:20;;;;;;;12.83;3.40;;;5.10;99.90;;;;;;5006328;28;20193;-59
2022/12/17 17:06:49;;;;;;;10.23;3.20;;;5.10;99.90;;;;;;5009001;28;20189;-59
2022/12/17 17:09:16;;;;;;;9.73;3.00;;;4.80;99.90;;;;;;5011966;28;20221;-58
2022/12/17 17:11:42;;;;;;;11.27;3.50;;;4.60;99.90;;;;;;5013739;28;20210;-58
2022/12/17 17:14:09;;;;;;;6.50;2.73;;;4.90;99.90;;;;;;5014624;28;20198;-58
2022/12/17 17:16:35;;;;;;;9.03;3.27;;;;;;;;;;5013873;28;20179;-59
2022/12/17 17:19:02;;;;;;;11.70;3.20;;;;;;;;;;5014383;28;20210;-57
2022/12/17 17:21:33;;;;;;;17.93;5.97;;;5.30;99.90;;;;;;5006092;28;20202;-58
2022/12/17 17:24:03;;;;;;;51.30;25.27;;;5.40;99.90;;;;;;5014522;28;20273;-59
2022/12/17 17:26:31;;;;;;;5.30;2.37;;;5.70;99.90;;;;;;5014429;28;20749;-58
2022/12/17 17:28:58;;;;;;;6.33;2.90;;;5.40;99.90;;;;;;5013197;28;20707;-58
2022/12/17 17:31:23;;;;;;;40.83;19.77;;;5.20;99.90;;;;;;5014088;28;20293;-59
2022/12/17 17:33:51;;;;;;;44.50;15.70;;;5.30;99.90;;;;;;5014352;28;20214;-58
2022/12/17 17:36:22;;;;;;;12.40;5.10;;;4.90;99.90;;;;;;5014144;28;20671;-58
2022/12/17 17:38:49;;;;;;;14.63;6.33;;;5.00;99.90;;;;;;5014269;28;20179;-58
2022/12/17 17:41:20;;;;;;;14.77;6.30;;;4.60;99.90;;;;;;5014056;28;20186;-58
2022/12/17 17:43:46;;;;;;;24.73;12.20;;;4.40;99.90;;;;;;5014407;28;20174;-59
2022/12/17 17:46:16;;;;;;;15.33;7.60;;;4.90;99.90;;;;;;5014036;28;20170;-58
2022/12/17 17:48:44;;;;;;;21.40;8.20;;;4.30;99.90;;;;;;5014062;28;20276;-59
2022/12/17 17:51:22;;;;;;;23.57;9.67;;;4.30;99.90;;;;;;5014029;28;20167;-58
2022/12/17 17:53:50;;;;;;;19.43;9.80;;;4.20;99.90;;;;;;5013968;28;20269;-58
2022/12/17 17:56:18;;;;;;;30.03;11.40;;;4.00;99.90;;;;;;5014229;28;20178;-59
2022/12/17 17:58:53;;;;;;;24.73;10.80;;;4.00;99.90;;;;;;5013884;28;20163;-59
2022/12/17 18:01:25;;;;;;;37.43;16.10;;;4.10;99.90;;;;;;5012588;28;20525;-59
2022/12/17 18:03:51;;;;;;;48.40;22.03;;;3.80;99.90;;;;;;5013792;28;20174;-59
2022/12/17 18:06:18;;;;;;;41.63;20.17;;;3.80;99.90;;;;;;5013703;28;20205;-59
2022/12/17 18:08:44;;;;;;;60.83;25.50;;;3.70;99.90;;;;;;5013602;28;20229;-59
2022/12/17 18:11:15;;;;;;;36.10;18.47;;;3.70;99.90;;;;;;5012663;28;20175;-60
2022/12/17 18:13:56;;;;;;;37.23;18.37;;;;;;;;;;5003053;28;21876;-59
2022/12/17 18:16:30;;;;;;;40.87;15.17;;;3.30;99.90;;;;;;5000890;28;20167;-60
2022/12/17 18:19:01;;;;;;;28.60;13.83;;;3.40;99.90;;;;;;5012479;28;20673;-60
2022/12/17 18:21:29;;;;;;;29.90;11.90;;;3.00;99.90;;;;;;5006730;28;20210;-61
2022/12/17 18:24:00;;;;;;;32.23;11.73;;;3.20;99.90;;;;;;5012674;28;20171;-61
2022/12/17 18:26:28;;;;;;;27.20;12.77;;;3.20;99.90;;;;;;5010425;28;20206;-60
2022/12/17 18:28:55;;;;;;;28.20;10.83;;;2.70;99.90;;;;;;5012942;28;20171;-60
2022/12/17 18:31:22;;;;;;;24.10;10.87;;;;;;;;;;5012960;28;20209;-60
2022/12/17 18:33:51;;;;;;;26.00;11.07;;;2.90;99.90;;;;;;5000884;28;20189;-60
2022/12/17 18:36:20;;;;;;;23.00;11.53;;;2.60;99.90;;;;;;5010843;28;20179;-61
2022/12/17 18:38:46;;;;;;;23.67;11.70;;;2.80;99.90;;;;;;5013370;28;20209;-60
2022/12/17 18:44:02;;;;;;;45.37;20.47;;;2.40;99.90;;;;;;4993705;28;20237;-60
2022/12/17 18:46:28;;;;;;;36.80;15.23;;;2.50;99.90;;;;;;4993457;28;20178;-60
2022/12/17 18:49:01;;;;;;;30.13;12.83;;;2.60;99.90;;;;;;5001137;28;20622;-60
2022/12/17 18:51:27;;;;;;;30.00;14.80;;;2.30;99.90;;;;;;5012551;28;20202;-62
2022/12/17 18:53:56;;;;;;;37.43;16.77;;;2.40;99.90;;;;;;5012980;28;20175;-60
2022/12/17 18:56:22;;;;;;;35.80;17.47;;;1.90;99.90;;;;;;5012790;28;20163;-61
2022/12/17 18:58:50;;;;;;;39.77;18.40;;;2.10;99.90;;;;;;5012480;28;20198;-61
2022/12/17 19:01:20;;;;;;;45.20;21.13;;;2.30;99.90;;;;;;5012718;28;20167;-60
2022/12/17 19:03:46;;;;;;;49.37;20.03;;;2.00;99.90;;;;;;5012157;28;20221;-60
2022/12/17 19:06:12;;;;;;;43.70;18.43;;;2.00;99.90;;;;;;5012353;28;20198;-61
2022/12/17 19:08:38;;;;;;;35.80;16.63;;;;;;;;;;5012572;28;20241;-60
2022/12/17 19:11:08;;;;;;;33.37;15.30;;;2.10;99.90;;;;;;5011779;28;20700;-60
2022/12/17 19:13:34;;;;;;;38.83;18.13;;;2.00;99.90;;;;;;5011949;28;20251;-60
2022/12/17 19:16:14;;;;;;;39.53;17.67;;;2.10;99.90;;;;;;5005896;28;20194;-62
2022/12/17 19:18:41;;;;;;;40.73;16.10;;;2.00;99.90;;;;;;5012159;28;20649;-60
2022/12/17 19:21:10;;;;;;;39.30;17.27;;;2.00;99.90;;;;;;4997450;28;20190;-61
2022/12/17 19:23:36;;;;;;;45.20;17.57;;;2.10;99.90;;;;;;5002558;28;20199;-60
2022/12/17 19:26:13;;;;;;;41.63;17.47;;;1.80;99.90;;;;;;5011556;28;20275;-61
2022/12/17 19:28:40;;;;;;;38.90;15.30;;;2.00;99.90;;;;;;5012252;28;20205;-61
2022/12/17 19:31:07;;;;;;;37.40;16.20;;;1.60;99.90;;;;;;5011905;28;20170;-58
2022/12/17 19:33:33;;;;;;;39.33;15.97;;;;;;;;;;5011979;28;20179;-58
2022/12/17 19:36:20;;;;;;;37.90;15.67;;;2.00;99.90;;;;;;5007004;28;20593;-59
2022/12/17 19:38:49;;;;;;;40.73;14.83;;;1.60;99.90;;;;;;5001686;28;20179;-58
2022/12/17 19:41:17;;;;;;;32.90;14.07;;;1.70;99.90;;;;;;5010698;28;20177;-58
2022/12/17 19:43:44;;;;;;;29.00;13.70;;;1.50;99.90;;;;;;5012053;28;20205;-60
2022/12/17 19:46:15;;;;;;;36.67;14.37;;;1.50;99.90;;;;;;5011792;28;20189;-60
2022/12/17 19:48:41;;;;;;;34.07;15.00;;;1.70;99.90;;;;;;5011771;28;20305;-59
2022/12/17 19:51:09;;;;;;;35.00;14.43;;;1.40;99.90;;;;;;5011772;28;20178;-59
2022/12/17 19:53:36;;;;;;;28.00;13.37;;;1.40;99.90;;;;;;5011547;28;20237;-61
2022/12/17 19:56:29;;;;;;;32.67;15.10;;;1.40;99.90;;;;;;5010433;28;20689;-59
2022/12/17 19:58:57;;;;;;;31.47;14.30;;;1.30;99.90;;;;;;5011447;28;20282;-59
2022/12/17 20:01:24;;;;;;;34.27;13.83;;;1.40;99.90;;;;;;5011523;28;20183;-59
2022/12/17 20:03:50;;;;;;;35.60;13.13;;;1.60;99.90;;;;;;5002719;28;20658;-59
2022/12/17 20:06:18;;;;;;;30.67;12.83;;;1.40;99.90;;;;;;4999482;28;20186;-59
2022/12/17 20:08:44;;;;;;;32.20;12.83;;;;;;;;;;5010337;28;20193;-57
2022/12/17 20:13:59;;;;;;;26.27;12.70;;;1.30;99.90;;;;;;5007029;28;20575;-62
2022/12/17 20:16:26;;;;;;;29.00;13.80;;;1.20;99.90;;;;;;5010145;28;20213;-60
2022/12/17 20:18:52;;;;;;;28.50;13.40;;;1.30;99.90;;;;;;5008126;28;20178;-60
2022/12/17 20:21:18;;;;;;;25.00;12.60;;;1.10;99.90;;;;;;5010931;28;20653;-60
2022/12/17 20:23:48;;;;;;;25.63;11.87;;;1.30;99.90;;;;;;5006874;28;20236;-57
2022/12/17 20:26:14;;;;;;;32.20;13.60;;;1.10;99.90;;;;;;5011672;28;20174;-58
2022/12/17 20:28:40;;;;;;;25.70;12.17;;;1.20;99.90;;;;;;5018561;28;20186;-60
2022/12/17 20:31:06;;;;;;;25.43;11.93;;;1.30;99.90;;;;;;5007268;28;20171;-58
2022/12/17 20:33:32;;;;;;;28.97;11.50;;;1.00;99.90;;;;;;5010990;28;20173;-61
2022/12/17 20:36:05;;;;;;;23.37;11.33;;;1.20;99.90;;;;;;5010294;28;20174;-59
2022/12/17 20:38:31;;;;;;;25.83;11.23;;;1.20;99.90;;;;;;5010764;28;20653;-59
2022/12/17 20:40:57;;;;;;;29.03;11.87;;;1.10;99.90;;;;;;5010698;28;20169;-61
2022/12/17 20:43:22;;;;;;;23.33;11.63;;;1.10;99.90;;;;;;5010801;28;20193;-60
2022/12/17 20:45:50;;;;;;;32.50;11.97;;;1.00;99.90;;;;;;5010094;28;20186;-60
2022/12/17 20:48:16;;;;;;;36.93;13.27;;;0.50;99.90;;;;;;5010881;28;20219;-60
2022/12/17 20:50:43;;;;;;;30.60;12.83;;;0.80;99.90;;;;;;5006559;28;20270;-59
2022/12/17 20:53:10;;;;;;;35.03;12.83;;;1.00;99.90;;;;;;5010780;28;20217;-59
2022/12/17 20:55:36;;;;;;;27.73;11.83;;;1.00;99.90;;;;;;5010138;28;20229;-60
2022/12/17 20:58:02;;;;;;;32.90;13.13;;;1.00;99.90;;;;;;5009985;28;20274;-60
2022/12/17 21:00:27;;;;;;;32.17;13.37;;;0.90;99.90;;;;;;5009504;28;20697;-60
2022/12/17 21:02:54;;;;;;;31.53;15.10;;;;;;;;;;5004585;28;20204;-61
2022/12/17 21:05:19;;;;;;;37.97;17.47;;;1.10;99.90;;;;;;5010534;28;20179;-59
2022/12/17 21:07:45;;;;;;;30.93;13.90;;;0.90;99.90;;;;;;5010544;28;20175;-61
2022/12/17 21:10:11;;;;;;;38.17;16.27;;;1.00;99.90;;;;;;4998804;28;20892;-60
2022/12/17 21:15:21;;;;;;;26.43;12.10;;;0.70;99.90;;;;;;5010606;28;20177;-60
2022/12/17 21:17:47;;;;;;;25.40;10.33;;;0.20;99.90;;;;;;5009470;28;20171;-59
2022/12/17 21:20:13;;;;;;;26.83;11.80;;;0.80;99.90;;;;;;5010354;28;20713;-59
2022/12/17 21:22:40;;;;;;;32.27;14.13;;;0.70;99.90;;;;;;5010538;28;20174;-58
2022/12/17 21:25:06;;;;;;;49.83;21.07;;;;;;;;;;5008885;28;20258;-60
2022/12/17 21:27:33;;;;;;;34.27;14.20;;;0.60;99.90;;;;;;5010654;28;20178;-60
2022/12/17 21:29:59;;;;;;;37.20;15.23;;;0.40;99.90;;;;;;5010581;28;20250;-60
2022/12/17 21:32:25;;;;;;;38.23;14.33;;;;;;;;;;5010508;28;20698;-60
2022/12/17 21:34:50;;;;;;;26.07;13.27;;;0.40;99.90;;;;;;5010067;28;20174;-59
2022/12/17 21:37:16;;;;;;;33.67;13.70;;;0.40;99.90;;;;;;5010358;28;20185;-60
2022/12/17 21:39:42;;;;;;;35.10;14.57;;;;;;;;;;5009584;28;20166;-60
2022/12/17 21:44:52;;;;;;;37.80;19.50;;;0.60;99.90;;;;;;5010223;28;20300;-59
2022/12/17 21:47:18;;;;;;;58.80;20.83;;;0.50;99.90;;;;;;5011941;28;20273;-59
2022/12/17 21:49:44;;;;;;;53.60;20.10;;;0.80;99.90;;;;;;5014056;28;20625;-60
2022/12/17 21:52:10;;;;;;;51.50;20.33;;;1.30;99.90;;;;;;5013135;28;20214;-61
2022/12/17 21:54:36;;;;;;;114.90;37.90;;;0.90;99.90;;;;;;5013796;28;20257;-60
2022/12/17 21:57:02;;;;;;;71.67;25.33;;;;;;;;;;5011426;28;20237;-60
2022/12/17 21:59:27;;;;;;;49.67;20.47;;;0.50;99.90;;;;;;5009241;28;20198;-60
2022/12/17 22:01:55;;;;;;;91.07;29.03;;;0.50;99.90;;;;;;5013663;28;20249;-61
2022/12/17 22:04:22;;;;;;;73.50;23.47;;;;;;;;;;5013668;28;20633;-60
2022/12/17 22:06:48;;;;;;;52.23;17.73;;;;;;;;;;5012831;28;20553;-61
2022/12/17 22:09:14;;;;;;;38.53;14.13;;;;;;;;;;5013788;28;20580;-60
2022/12/17 22:11:39;;;;;;;51.50;18.07;;;0.30;99.90;;;;;;5013495;28;20210;-60
2022/12/17 22:14:08;;;;;;;45.80;16.20;;;0.50;99.90;;;;;;5013495;28;20577;-60
2022/12/17 22:16:47;;;;;;;43.90;16.70;;;0.40;99.90;;;;;;5013373;28;20649;-60
2022/12/17 22:19:16;;;;;;;36.30;14.00;;;0.50;99.90;;;;;;5013280;28;20182;-61
2022/12/17 22:21:43;;;;;;;31.67;13.77;;;0.40;99.90;;;;;;5012896;28;20583;-60
2022/12/17 22:24:15;;;;;;;44.80;16.07;;;0.20;99.90;;;;;;5013002;28;20701;-60
2022/12/17 22:26:40;;;;;;;38.77;13.30;;;0.40;99.90;;;;;;5013256;28;20178;-61
2022/12/17 22:29:06;;;;;;;28.23;11.60;;;0.40;99.90;;;;;;5012808;28;20182;-60
2022/12/17 22:34:16;;;;;;;28.50;10.47;;;0.60;99.90;;;;;;5013388;28;20224;-59
2022/12/17 22:36:42;;;;;;;27.07;10.80;;;0.40;99.90;;;;;;5010888;28;20186;-59
2022/12/17 22:39:10;;;;;;;27.27;11.70;;;0.20;99.90;;;;;;5012782;28;20182;-58
2022/12/17 22:44:21;;;;;;;24.03;10.13;;;0.10;99.90;;;;;;4993559;28;20184;-59
2022/12/17 22:46:47;;;;;;;21.37;9.70;;;1.20;99.90;;;;;;5003376;28;20182;-59
2022/12/17 22:49:13;;;;;;;18.97;9.30;;;0.30;99.90;;;;;;5012719;28;20220;-60
2022/12/17 22:51:40;;;;;;;14.23;8.67;;;0.40;99.90;;;;;;5004737;28;20677;-60
2022/12/17 22:54:10;;;;;;;21.00;9.47;;;0.00;99.90;;;;;;5011354;28;20289;-60
2022/12/17 22:56:38;;;;;;;19.90;9.13;;;0.30;99.90;;;;;;5005317;28;20203;-59
2022/12/17 22:59:04;;;;;;;20.27;9.23;;;0.40;99.90;;;;;;5014169;28;20259;-59
2022/12/17 23:01:31;;;;;;;21.30;8.60;;;0.40;99.90;;;;;;5008480;28;20198;-59
2022/12/17 23:03:59;;;;;;;19.07;8.73;;;0.20;99.90;;;;;;5010975;28;20228;-60
2022/12/17 23:06:25;;;;;;;17.70;8.50;;;0.30;99.90;;;;;;5004935;28;20195;-60
2022/12/17 23:08:51;;;;;;;19.23;8.60;;;0.00;99.90;;;;;;4993202;28;20282;-60
2022/12/17 23:11:23;;;;;;;17.30;7.87;;;0.30;99.90;;;;;;5011638;28;20209;-61
2022/12/17 23:13:50;;;;;;;16.93;7.73;;;0.40;99.90;;;;;;5012812;28;20183;-58
2022/12/17 23:16:16;;;;;;;21.33;8.63;;;;;;;;;;5012777;28;20170;-58
2022/12/17 23:18:44;;;;;;;16.47;8.40;;;0.30;99.90;;;;;;5012609;28;20182;-58
2022/12/17 23:21:12;;;;;;;17.10;8.40;;;0.20;99.90;;;;;;5012453;28;20676;-59
2022/12/17 23:23:38;;;;;;;20.37;8.43;;;0.10;99.90;;;;;;4993012;28;20680;-59
2022/12/17 23:26:18;;;;;;;18.13;8.30;;;0.50;99.90;;;;;;4992999;28;20174;-60
2022/12/17 23:28:44;;;;;;;17.70;8.90;;;0.40;99.90;;;;;;4992780;28;20250;-59
2022/12/17 23:31:13;;;;;;;21.00;8.70;;;0.10;99.90;;;;;;4992708;28;20190;-60
2022/12/17 23:33:40;;;;;;;18.77;8.93;;;0.20;99.90;;;;;;4992770;28;20759;-59
2022/12/17 23:36:09;;;;;;;18.33;9.03;;;0.50;99.90;;;;;;4992664;28;20174;-60
2022/12/17 23:38:35;;;;;;;22.83;9.83;;;;;;;;;;4992581;28;20609;-59
2022/12/17 23:41:03;;;;;;;24.57;9.23;;;0.10;99.90;;;;;;4992641;28;20690;-59
2022/12/17 23:43:29;;;;;;;17.87;9.30;;;0.30;99.90;;;;;;5005913;28;20249;-59
2022/12/17 23:45:56;;;;;;;18.90;9.60;;;;;;;;;;5007488;28;20276;-59
2022/12/17 23:48:21;;;;;;;24.80;9.97;;;0.30;99.90;;;;;;5009023;28;20233;-59
2022/12/17 23:50:47;;;;;;;21.37;9.50;;;0.10;99.90;;;;;;5012095;28;20258;-59
2022/12/17 23:53:13;;;;;;;17.97;9.33;;;0.20;99.90;;;;;;5011598;28;20256;-58
2022/12/17 23:55:38;;;;;;;21.57;9.90;;;-0.30;99.90;;;;;;5011717;28;20189;-57
2022/12/17 23:58:04;;;;;;;19.10;9.80;;;0.00;99.90;;;;;;5002923;28;20654;-58
